createdAt,value
2019-03-01T00:00:00.396Z,99977.71
2019-03-01T00:01:02.707Z,99994.94
2019-03-01T00:01:40.573Z,99994.94
2019-03-01T00:02:11.753Z,99994.46
2019-03-01T00:02:42.933Z,100002.73
2019-03-01T00:03:14.108Z,99996.58
2019-03-01T00:03:50.477Z,99995.28
2019-03-01T00:04:27.373Z,100000.88
2019-03-01T00:05:05.279Z,100000.88
2019-03-01T00:05:59.887Z,99996.55
2019-03-01T00:06:48.491Z,99996.55
2019-03-01T00:08:07.587Z,100003.03
2019-03-01T00:09:18.965Z,99993.47
2019-03-01T00:10:01.752Z,99999.89
2019-03-01T00:11:07.142Z,99999.89
2019-03-01T00:11:53.877Z,99981.36
2019-03-01T00:12:57.743Z,99998.19
2019-03-01T00:13:54.908Z,99998.19
2019-03-01T00:14:49.678Z,100001.26
2019-03-01T00:15:26.660Z,100005.22
2019-03-01T00:16:12.636Z,100004.34
2019-03-01T00:17:10.748Z,100009.94
2019-03-01T00:17:56.342Z,100003.45
2019-03-01T00:18:45.110Z,100000.78
2019-03-01T00:19:44.472Z,100001.15
2019-03-01T00:20:30.113Z,100005.94
2019-03-01T00:21:18.593Z,100005.45
2019-03-01T00:22:25.771Z,100004.02
2019-03-01T00:23:25.027Z,100010.50
2019-03-01T00:24:10.652Z,100005.31
2019-03-01T00:25:05.429Z,100008.80
2019-03-01T00:25:48.165Z,100006.16
2019-03-01T00:26:31.027Z,100010.88
2019-03-01T00:27:10.576Z,100013.00
2019-03-01T00:28:11.639Z,100006.47
2019-03-01T00:29:21.227Z,100005.09
2019-03-01T00:30:29.801Z,100008.62
2019-03-01T00:31:24.511Z,100002.98
2019-03-01T00:32:33.915Z,100009.80
2019-03-01T00:33:26.214Z,100005.44
2019-03-01T00:34:31.088Z,100008.40
2019-03-01T00:35:13.568Z,100006.63
2019-03-01T00:36:16.884Z,100005.33
2019-03-01T00:37:15.811Z,100005.33
2019-03-01T00:38:15.082Z,99999.24
2019-03-01T00:39:17.429Z,99978.90
2019-03-01T00:40:20.796Z,100002.66
2019-03-01T00:41:24.691Z,100005.70
2019-03-01T00:42:16.442Z,100001.80
2019-03-01T00:43:11.144Z,100001.54
2019-03-01T00:44:02.478Z,99993.75
2019-03-01T00:44:40.319Z,99998.50
2019-03-01T00:45:11.477Z,100000.38
2019-03-01T00:45:42.659Z,99996.48
2019-03-01T00:46:13.831Z,99999.97
2019-03-01T00:46:45.002Z,99999.97
2019-03-01T00:47:16.164Z,99996.48
2019-03-01T00:47:47.365Z,99993.93
2019-03-01T00:48:18.526Z,100000.12
2019-03-01T00:48:49.743Z,99991.92
2019-03-01T00:49:21.897Z,99996.30
2019-03-01T00:49:53.136Z,99997.11
2019-03-01T00:50:24.295Z,100000.12
2019-03-01T00:50:55.512Z,99994.48
2019-03-01T00:51:26.647Z,99994.48
2019-03-01T00:51:57.908Z,99991.75
2019-03-01T00:52:29.107Z,99997.01
2019-03-01T00:53:00.259Z,99996.12
2019-03-01T00:53:31.462Z,99995.64
2019-03-01T00:54:02.615Z,99993.34
2019-03-01T00:54:35.077Z,99996.76
2019-03-01T00:55:07.201Z,99989.75
2019-03-01T00:55:38.549Z,99994.53
2019-03-01T00:56:09.789Z,99994.53
2019-03-01T00:56:40.989Z,99998.50
2019-03-01T00:57:12.231Z,99998.50
2019-03-01T00:57:43.401Z,99995.91
2019-03-01T00:58:14.554Z,99978.30
2019-03-01T00:58:45.762Z,100009.40
2019-03-01T00:59:16.912Z,99982.59
2019-03-01T00:59:48.132Z,100000.72
2019-03-01T01:00:36.373Z,100000.72
2019-03-01T01:01:07.600Z,99988.11
2019-03-01T01:01:38.765Z,99974.89
2019-03-01T01:02:10.082Z,99992.63
2019-03-01T01:02:41.266Z,99992.63
2019-03-01T01:03:12.440Z,99989.29
2019-03-01T01:03:43.616Z,99989.73
2019-03-01T01:04:14.798Z,99994.11
2019-03-01T01:04:45.960Z,99992.41
2019-03-01T01:05:17.124Z,99997.26
2019-03-01T01:05:48.332Z,99972.54
2019-03-01T01:06:19.522Z,99976.44
2019-03-01T01:06:50.767Z,99995.70
2019-03-01T01:07:23.017Z,99994.00
2019-03-01T01:07:54.217Z,99998.30
2019-03-01T01:08:25.468Z,99997.42
2019-03-01T01:08:56.764Z,99988.63
2019-03-01T01:12:48.552Z,99983.86
2019-03-01T01:13:20.725Z,99994.55
2019-03-01T01:13:51.911Z,99980.67
2019-03-01T01:14:23.072Z,99988.05
2019-03-01T01:14:54.275Z,99988.05
2019-03-01T01:15:25.427Z,99982.90
2019-03-01T01:15:56.650Z,99982.38
2019-03-01T01:16:27.786Z,99982.38
2019-03-01T01:16:59.000Z,99983.27
2019-03-01T01:17:30.158Z,99983.68
2019-03-01T01:18:01.359Z,99985.38
2019-03-01T01:18:32.535Z,99984.09
2019-03-01T01:19:03.721Z,99984.09
2019-03-01T01:19:35.034Z,99981.83
2019-03-01T01:20:08.241Z,99981.83
2019-03-01T01:20:39.409Z,99978.31
2019-03-01T01:21:10.605Z,99978.31
2019-03-01T01:21:41.760Z,99983.09
2019-03-01T01:22:12.968Z,99985.27
2019-03-01T01:22:44.155Z,99983.61
2019-03-01T01:23:15.377Z,99981.90
2019-03-01T01:23:46.536Z,99971.75
2019-03-01T01:24:17.734Z,99984.39
2019-03-01T01:24:48.923Z,99980.53
2019-03-01T01:25:20.110Z,99973.12
2019-03-01T01:25:51.298Z,99984.02
2019-03-01T01:26:22.498Z,99979.23
2019-03-01T01:26:53.664Z,99988.76
2019-03-01T01:27:24.860Z,99988.76
2019-03-01T01:27:56.065Z,99984.42
2019-03-01T01:28:27.236Z,99986.20
2019-03-01T01:28:58.430Z,99992.66
2019-03-01T01:29:29.629Z,99964.45
2019-03-01T01:30:00.830Z,99964.45
2019-03-01T01:30:31.998Z,99988.58
2019-03-01T01:31:03.210Z,99986.69
2019-03-01T01:31:34.366Z,99986.69
2019-03-01T01:32:05.552Z,99990.14
2019-03-01T01:32:36.700Z,99996.62
2019-03-01T01:33:07.923Z,99996.62
2019-03-01T01:33:39.066Z,99999.52
2019-03-01T01:34:10.268Z,99992.52
2019-03-01T01:34:41.420Z,99998.52
2019-03-01T01:35:12.618Z,99982.98
2019-03-01T01:35:43.791Z,99991.63
2019-03-01T01:36:14.991Z,99991.63
2019-03-01T01:36:46.167Z,99996.41
2019-03-01T01:37:17.372Z,100000.22
2019-03-01T01:37:48.549Z,99998.81
2019-03-01T01:38:19.749Z,99998.81
2019-03-01T01:38:50.893Z,100003.88
2019-03-01T01:39:23.176Z,100000.33
2019-03-01T01:39:54.461Z,100002.11
2019-03-01T01:40:25.667Z,100002.11
2019-03-01T01:40:56.811Z,100005.11
2019-03-01T01:41:27.997Z,100005.11
2019-03-01T01:41:59.159Z,100004.30
2019-03-01T01:42:30.371Z,100005.19
2019-03-01T01:43:01.523Z,100000.88
2019-03-01T01:43:32.723Z,100006.48
2019-03-01T01:44:03.899Z,99985.76
2019-03-01T01:44:35.240Z,99985.76
2019-03-01T01:45:09.308Z,100006.48
2019-03-01T01:45:40.516Z,99990.95
2019-03-01T01:46:11.678Z,99990.95
2019-03-01T01:46:42.880Z,99999.59
2019-03-01T01:47:14.038Z,99994.80
2019-03-01T01:47:45.236Z,100002.11
2019-03-01T01:48:16.420Z,100002.11
2019-03-01T01:48:47.592Z,99984.05
2019-03-01T01:49:18.765Z,99980.64
2019-03-01T01:49:49.959Z,100003.22
2019-03-01T01:50:21.134Z,100003.22
2019-03-01T01:50:52.322Z,99996.73
2019-03-01T01:51:23.494Z,100002.81
2019-03-01T01:51:54.683Z,100003.59
2019-03-01T01:52:25.879Z,99999.63
2019-03-01T01:52:57.079Z,99996.03
2019-03-01T01:53:28.279Z,99995.25
2019-03-01T01:54:00.472Z,99995.25
2019-03-01T01:54:31.666Z,99995.40
2019-03-01T01:55:04.747Z,99995.03
2019-03-01T01:55:35.935Z,99988.25
2019-03-01T01:56:07.119Z,99988.25
2019-03-01T01:56:38.290Z,99984.36
2019-03-01T01:57:09.465Z,99967.90
2019-03-01T01:57:40.676Z,99967.90
2019-03-01T01:58:11.831Z,99982.47
2019-03-01T01:58:43.035Z,99984.17
2019-03-01T01:59:14.187Z,99984.17
2019-03-01T01:59:45.422Z,99983.24
2019-03-01T02:00:16.582Z,99983.24
2019-03-01T02:00:47.779Z,99982.47
2019-03-01T02:01:18.919Z,99979.61
2019-03-01T02:01:50.114Z,99975.83
2019-03-01T02:02:21.273Z,99975.83
2019-03-01T02:02:52.505Z,99981.24
2019-03-01T02:03:23.695Z,99981.24
2019-03-01T02:03:54.932Z,99979.83
2019-03-01T02:04:26.172Z,99980.65
2019-03-01T02:04:57.400Z,99974.09
2019-03-01T02:05:28.622Z,99975.80
2019-03-01T02:05:59.884Z,99987.84
2019-03-01T02:06:31.123Z,99981.69
2019-03-01T02:07:03.357Z,99965.34
2019-03-01T02:07:34.868Z,99987.17
2019-03-01T02:08:06.113Z,99984.69
2019-03-01T02:08:37.444Z,99984.69
2019-03-01T02:09:19.468Z,99988.60
2019-03-01T02:09:50.672Z,99988.60
2019-03-01T02:10:21.834Z,99989.66
2019-03-01T02:10:53.040Z,99988.10
2019-03-01T02:11:24.203Z,99992.47
2019-03-01T02:11:55.394Z,99992.47
2019-03-01T02:12:27.555Z,99992.36
2019-03-01T02:12:58.748Z,99992.36
2019-03-01T02:13:29.969Z,99990.66
2019-03-01T02:14:01.199Z,99985.87
2019-03-01T02:14:32.425Z,99985.87
2019-03-01T02:15:08.460Z,99987.58
2019-03-01T02:15:39.695Z,99993.77
2019-03-01T02:16:10.922Z,99974.91
2019-03-01T02:16:42.151Z,99990.41
2019-03-01T02:17:13.393Z,99985.66
2019-03-01T02:17:44.623Z,99985.66
2019-03-01T02:18:15.841Z,99992.47
2019-03-01T02:18:47.197Z,99992.47
2019-03-01T02:19:18.364Z,99995.14
2019-03-01T02:19:49.571Z,99963.19
2019-03-01T02:20:20.720Z,99979.13
2019-03-01T02:20:51.923Z,99991.88
2019-03-01T02:21:24.082Z,99997.55
2019-03-01T02:21:55.281Z,99995.77
2019-03-01T02:22:26.447Z,99993.50
2019-03-01T02:22:57.650Z,99993.50
2019-03-01T02:23:28.803Z,99995.64
2019-03-01T02:24:00.007Z,99991.75
2019-03-01T02:24:31.157Z,99991.75
2019-03-01T02:25:02.470Z,99992.08
2019-03-01T02:25:34.692Z,99991.68
2019-03-01T02:26:05.937Z,99991.68
2019-03-01T02:26:37.124Z,99990.38
2019-03-01T02:27:27.289Z,99989.49
2019-03-01T02:27:58.536Z,99989.49
2019-03-01T02:28:29.709Z,99988.61
2019-03-01T02:29:00.914Z,99973.55
2019-03-01T02:29:32.104Z,99973.55
2019-03-01T02:30:16.970Z,99991.39
2019-03-01T02:30:59.038Z,99992.36
2019-03-01T02:31:30.543Z,99990.50
2019-03-01T02:32:01.742Z,99990.91
2019-03-01T02:32:37.458Z,99987.09
2019-03-01T02:33:08.712Z,99987.69
2019-03-01T02:33:39.896Z,99985.02
2019-03-01T02:34:11.099Z,99986.39
2019-03-01T02:34:42.271Z,99984.70
2019-03-01T02:35:17.862Z,99977.40
2019-03-01T02:35:49.133Z,99983.80
2019-03-01T02:36:20.309Z,99982.92
2019-03-01T02:36:51.488Z,99979.51
2019-03-01T02:37:22.667Z,99975.73
2019-03-01T02:37:53.868Z,99973.70
2019-03-01T02:38:25.051Z,99964.28
2019-03-01T02:38:56.253Z,99964.28
2019-03-01T02:39:27.431Z,99976.11
2019-03-01T02:39:59.714Z,99976.11
2019-03-01T02:40:34.062Z,99974.89
2019-03-01T02:41:05.265Z,99979.42
2019-03-01T02:41:37.419Z,99973.08
2019-03-01T02:42:08.607Z,99977.86
2019-03-01T02:42:39.816Z,99978.20
2019-03-01T02:43:11.019Z,99981.80
2019-03-01T02:43:42.227Z,99977.16
2019-03-01T02:44:13.414Z,99977.16
2019-03-01T02:44:44.566Z,99983.23
2019-03-01T02:45:20.172Z,99983.09
2019-03-01T02:45:51.415Z,99985.50
2019-03-01T02:46:22.635Z,99970.55
2019-03-01T02:46:53.793Z,99970.55
2019-03-01T02:47:25.002Z,99986.86
2019-03-01T02:47:56.170Z,99984.11
2019-03-01T02:48:27.397Z,99991.25
2019-03-01T02:48:58.575Z,99991.25
2019-03-01T02:49:29.758Z,99991.95
2019-03-01T02:50:01.369Z,99991.88
2019-03-01T02:50:32.644Z,99995.56
2019-03-01T02:51:03.842Z,99994.20
2019-03-01T02:51:35.195Z,99994.20
2019-03-01T02:52:06.373Z,99991.89
2019-03-01T02:52:37.646Z,100003.63
2019-03-01T02:53:08.899Z,100003.63
2019-03-01T02:53:40.237Z,100007.85
2019-03-01T02:54:11.524Z,100002.14
2019-03-01T02:54:42.701Z,99991.45
2019-03-01T02:55:16.508Z,99997.38
2019-03-01T02:55:47.760Z,100007.13
2019-03-01T02:56:18.950Z,99989.89
2019-03-01T02:56:50.097Z,99989.89
2019-03-01T02:57:21.321Z,100014.09
2019-03-01T02:57:52.482Z,100014.09
2019-03-01T02:58:23.671Z,100012.80
2019-03-01T02:58:54.829Z,100005.34
2019-03-01T02:59:26.033Z,100013.28
2019-03-01T02:59:57.187Z,99993.97
2019-03-01T03:00:29.611Z,99993.97
2019-03-01T03:01:00.859Z,100012.43
2019-03-01T03:01:32.061Z,100012.43
2019-03-01T03:02:03.246Z,99990.77
2019-03-01T03:02:34.493Z,100012.91
2019-03-01T03:03:05.649Z,100015.09
2019-03-01T03:03:36.860Z,100012.02
2019-03-01T03:04:08.067Z,100009.03
2019-03-01T03:04:39.296Z,100013.40
2019-03-01T03:05:10.533Z,100018.30
2019-03-01T03:06:01.468Z,100018.78
2019-03-01T03:06:37.442Z,100014.33
2019-03-01T03:07:13.281Z,100015.67
2019-03-01T03:07:59.121Z,100015.67
2019-03-01T03:08:30.345Z,100010.53
2019-03-01T03:09:01.686Z,100010.05
2019-03-01T03:09:35.033Z,100010.05
2019-03-01T03:10:07.093Z,100013.00
2019-03-01T03:10:38.287Z,100017.70
2019-03-01T03:11:09.459Z,100017.30
2019-03-01T03:11:40.661Z,100017.30
2019-03-01T03:12:11.816Z,100014.38
2019-03-01T03:12:44.327Z,100010.61
2019-03-01T03:13:15.486Z,100013.69
2019-03-01T03:13:46.716Z,100015.58
2019-03-01T03:14:17.966Z,100015.18
2019-03-01T03:14:49.165Z,100015.18
2019-03-01T03:15:30.835Z,100016.80
2019-03-01T03:16:03.040Z,100023.98
2019-03-01T03:16:34.300Z,100020.78
2019-03-01T03:17:05.571Z,100019.81
2019-03-01T03:17:36.726Z,100016.77
2019-03-01T03:18:08.158Z,100015.47
2019-03-01T03:18:39.327Z,100019.69
2019-03-01T03:19:10.507Z,100019.69
2019-03-01T03:19:41.721Z,100021.80
2019-03-01T03:20:12.954Z,100018.67
2019-03-01T03:20:44.185Z,100019.48
2019-03-01T03:21:15.434Z,100019.48
2019-03-01T03:21:46.675Z,100017.98
2019-03-01T03:22:17.922Z,100000.02
2019-03-01T03:22:49.159Z,100000.02
2019-03-01T03:23:20.397Z,100026.73
2019-03-01T03:23:51.777Z,100023.25
2019-03-01T03:24:23.050Z,100020.58
2019-03-01T03:24:54.260Z,100022.72
2019-03-01T03:25:25.404Z,100020.45
2019-03-01T03:25:56.707Z,100020.86
2019-03-01T03:26:27.875Z,100019.97
2019-03-01T03:26:59.069Z,100018.75
2019-03-01T03:27:30.237Z,100012.28
2019-03-01T03:28:01.429Z,100012.28
2019-03-01T03:28:33.608Z,100014.47
2019-03-01T03:29:04.768Z,100014.47
2019-03-01T03:29:35.927Z,100016.29
2019-03-01T03:30:18.293Z,100017.54
2019-03-01T03:30:49.444Z,100015.77
2019-03-01T03:31:20.609Z,100018.47
2019-03-01T03:31:51.898Z,100017.46
2019-03-01T03:32:23.213Z,100017.46
2019-03-01T03:32:54.400Z,100022.23
2019-03-01T03:33:26.023Z,100021.75
2019-03-01T03:33:57.202Z,100003.58
2019-03-01T03:34:28.465Z,100023.33
2019-03-01T03:34:59.702Z,100021.22
2019-03-01T03:35:30.860Z,100025.52
2019-03-01T03:36:02.011Z,100024.14
2019-03-01T03:36:33.199Z,100024.14
2019-03-01T03:37:04.611Z,100014.59
2019-03-01T03:37:35.772Z,100018.88
2019-03-01T03:38:06.947Z,100018.88
2019-03-01T03:38:38.095Z,100014.55
2019-03-01T03:39:09.937Z,100016.29
2019-03-01T03:39:41.114Z,100007.98
2019-03-01T03:40:13.781Z,100011.19
2019-03-01T03:40:44.945Z,100009.36
2019-03-01T03:41:16.196Z,100018.63
2019-03-01T03:41:47.345Z,100018.68
2019-03-01T03:42:18.541Z,99998.92
2019-03-01T03:42:49.719Z,100013.30
2019-03-01T03:43:22.862Z,100021.55
2019-03-01T03:43:53.978Z,100020.78
2019-03-01T03:44:25.225Z,100020.78
2019-03-01T03:44:56.406Z,100022.64
2019-03-01T03:45:27.590Z,100022.64
2019-03-01T03:45:58.789Z,100020.50
2019-03-01T03:46:29.970Z,100024.06
2019-03-01T03:47:01.168Z,100023.17
2019-03-01T03:47:32.345Z,100023.17
2019-03-01T03:48:03.509Z,100029.16
2019-03-01T03:48:36.228Z,100023.09
2019-03-01T03:49:07.910Z,100024.75
2019-03-01T03:49:39.088Z,100007.42
2019-03-01T03:50:14.115Z,100024.34
2019-03-01T03:50:45.296Z,100024.34
2019-03-01T03:51:16.514Z,100024.34
2019-03-01T03:51:47.694Z,100019.89
2019-03-01T03:52:18.873Z,100028.27
2019-03-01T03:52:50.114Z,100028.27
2019-03-01T03:53:21.360Z,100027.05
2019-03-01T03:53:52.615Z,100033.05
2019-03-01T03:54:23.873Z,100024.75
2019-03-01T03:54:55.094Z,100024.75
2019-03-01T03:55:26.347Z,100025.56
2019-03-01T03:55:57.602Z,100025.56
2019-03-01T03:56:28.805Z,100026.86
2019-03-01T03:56:59.941Z,100024.34
2019-03-01T03:57:31.170Z,100027.42
2019-03-01T03:58:02.325Z,100027.42
2019-03-01T03:58:33.564Z,100007.09
2019-03-01T03:59:04.778Z,100019.20
2019-03-01T03:59:35.974Z,100020.94
2019-03-01T04:00:14.665Z,100016.61
2019-03-01T04:00:45.929Z,100018.39
2019-03-01T04:01:17.153Z,100018.39
2019-03-01T04:01:48.362Z,100020.17
2019-03-01T04:02:19.697Z,100018.88
2019-03-01T04:02:50.975Z,100017.17
2019-03-01T04:03:22.206Z,100020.66
2019-03-01T04:03:53.457Z,100020.05
2019-03-01T04:04:24.706Z,100015.27
2019-03-01T04:04:56.024Z,100015.27
2019-03-01T04:05:27.237Z,100016.48
2019-03-01T04:05:58.392Z,100023.45
2019-03-01T04:06:29.602Z,100016.48
2019-03-01T04:07:00.761Z,100018.15
2019-03-01T04:07:31.966Z,100018.15
2019-03-01T04:08:03.139Z,100016.90
2019-03-01T04:08:34.499Z,100010.82
2019-03-01T04:09:05.763Z,100010.82
2019-03-01T04:09:38.864Z,100015.20
2019-03-01T04:10:10.652Z,100015.20
2019-03-01T04:10:41.893Z,100014.30
2019-03-01T04:11:13.171Z,99994.88
2019-03-01T04:11:44.480Z,100005.19
2019-03-01T04:12:15.710Z,100007.50
2019-03-01T04:12:47.007Z,100007.02
2019-03-01T04:13:18.322Z,100012.12
2019-03-01T04:13:49.554Z,100003.73
2019-03-01T04:14:20.816Z,100006.69
2019-03-01T04:14:52.108Z,100010.58
2019-03-01T04:15:23.295Z,100012.81
2019-03-01T04:15:54.439Z,99983.17
2019-03-01T04:16:25.836Z,99996.25
2019-03-01T04:16:56.997Z,100015.16
2019-03-01T04:17:28.197Z,100016.45
2019-03-01T04:17:59.385Z,100009.89
2019-03-01T04:18:30.679Z,100007.22
2019-03-01T04:19:01.843Z,100011.59
2019-03-01T04:19:33.255Z,100013.25
2019-03-01T04:20:09.218Z,100016.17
2019-03-01T04:20:40.445Z,99996.69
2019-03-01T04:21:12.710Z,100011.88
2019-03-01T04:21:43.942Z,100011.88
2019-03-01T04:22:15.200Z,100024.42
2019-03-01T04:22:46.408Z,100024.42
2019-03-01T04:23:17.575Z,100019.73
2019-03-01T04:23:48.802Z,100017.14
2019-03-01T04:24:19.952Z,100017.14
2019-03-01T04:24:51.178Z,100019.36
2019-03-01T04:25:22.364Z,100021.22
2019-03-01T04:25:53.599Z,100021.27
2019-03-01T04:26:24.835Z,100025.16
2019-03-01T04:26:56.065Z,100019.45
2019-03-01T04:27:27.301Z,100020.25
2019-03-01T04:27:58.545Z,100020.25
2019-03-01T04:28:29.738Z,100021.06
2019-03-01T04:29:00.938Z,100021.06
2019-03-01T04:29:32.097Z,100016.77
2019-03-01T04:30:08.698Z,100008.67
2019-03-01T04:30:39.876Z,100016.77
2019-03-01T04:31:11.057Z,100016.77
2019-03-01T04:31:42.241Z,100016.29
2019-03-01T04:32:13.635Z,100015.89
2019-03-01T04:32:44.824Z,100008.52
2019-03-01T04:33:16.000Z,100008.52
2019-03-01T04:33:47.177Z,100016.37
2019-03-01T04:34:18.369Z,100012.00
2019-03-01T04:34:49.557Z,100016.77
2019-03-01T04:35:20.731Z,100003.90
2019-03-01T04:35:51.917Z,100011.75
2019-03-01T04:36:23.099Z,100011.75
2019-03-01T04:36:54.286Z,100013.45
2019-03-01T04:37:26.463Z,100010.30
2019-03-01T04:37:57.659Z,100012.08
2019-03-01T04:38:28.830Z,100012.08
2019-03-01T04:39:00.021Z,100012.03
2019-03-01T04:39:31.208Z,100012.03
2019-03-01T04:40:04.110Z,100013.78
2019-03-01T04:40:35.364Z,100012.03
2019-03-01T04:41:06.604Z,100012.03
2019-03-01T04:41:37.811Z,100009.89
2019-03-01T04:42:08.982Z,100009.89
2019-03-01T04:42:40.185Z,100011.19
2019-03-01T04:43:11.334Z,100017.26
2019-03-01T04:43:42.590Z,100009.44
2019-03-01T04:44:13.918Z,100017.21
2019-03-01T04:44:45.112Z,100015.03
2019-03-01T04:45:17.170Z,100012.36
2019-03-01T04:45:48.376Z,100012.36
2019-03-01T04:46:19.550Z,100014.82
2019-03-01T04:46:50.804Z,100013.04
2019-03-01T04:47:21.966Z,100013.04
2019-03-01T04:47:53.178Z,100015.71
2019-03-01T04:48:24.331Z,100018.34
2019-03-01T04:48:55.549Z,100015.30
2019-03-01T04:49:26.707Z,100015.30
2019-03-01T04:49:57.901Z,100017.94
2019-03-01T04:50:29.053Z,100020.61
2019-03-01T04:51:00.256Z,100019.04
2019-03-01T04:51:39.866Z,100020.86
2019-03-01T04:52:25.503Z,100020.86
2019-03-01T04:52:56.677Z,100018.43
2019-03-01T04:53:27.871Z,100015.89
2019-03-01T04:53:59.047Z,100017.79
2019-03-01T04:54:31.263Z,100017.79
2019-03-01T04:55:11.163Z,99996.69
2019-03-01T04:55:42.403Z,100010.09
2019-03-01T04:56:13.600Z,100008.27
2019-03-01T04:56:44.826Z,100025.23
2019-03-01T04:57:15.975Z,100025.23
2019-03-01T04:57:47.284Z,100022.84
2019-03-01T04:58:18.445Z,100022.84
2019-03-01T04:58:49.618Z,100025.56
2019-03-01T04:59:20.810Z,100030.78
2019-03-01T04:59:52.002Z,100010.57
2019-03-01T05:00:23.886Z,100026.56
2019-03-01T05:00:55.064Z,100026.56
2019-03-01T05:01:26.234Z,100028.06
2019-03-01T05:01:57.431Z,100028.06
2019-03-01T05:02:28.583Z,100028.06
2019-03-01T05:02:59.776Z,100022.68
2019-03-01T05:03:30.925Z,100031.75
2019-03-01T05:04:02.149Z,100034.06
2019-03-01T05:04:33.284Z,100034.06
2019-03-01T05:05:04.803Z,100033.41
2019-03-01T05:05:35.939Z,100033.41
2019-03-01T05:06:07.150Z,100031.11
2019-03-01T05:06:38.286Z,100030.14
2019-03-01T05:07:09.477Z,100032.32
2019-03-01T05:07:40.637Z,100030.02
2019-03-01T05:08:11.855Z,100030.02
2019-03-01T05:08:43.003Z,100027.22
2019-03-01T05:09:14.191Z,100027.22
2019-03-01T05:09:45.467Z,100022.72
2019-03-01T05:10:16.777Z,100023.41
2019-03-01T05:10:47.940Z,100027.30
2019-03-01T05:11:19.123Z,100027.30
2019-03-01T05:11:50.284Z,100025.52
2019-03-01T05:12:21.485Z,100029.48
2019-03-01T05:12:52.663Z,100027.22
2019-03-01T05:13:23.880Z,100025.44
2019-03-01T05:13:55.039Z,100027.62
2019-03-01T05:14:26.233Z,100027.62
2019-03-01T05:14:57.393Z,100029.80
2019-03-01T05:15:28.620Z,100028.19
2019-03-01T05:15:59.805Z,100027.78
2019-03-01T05:16:31.084Z,100029.12
2019-03-01T05:17:02.335Z,100031.30
2019-03-01T05:17:33.552Z,100031.30
2019-03-01T05:18:05.070Z,100035.27
2019-03-01T05:18:36.348Z,100033.49
2019-03-01T05:19:07.598Z,100042.08
2019-03-01T05:19:38.920Z,100038.14
2019-03-01T05:20:10.254Z,100035.47
2019-03-01T05:20:41.524Z,100037.58
2019-03-01T05:21:12.778Z,100045.34
2019-03-01T05:21:44.944Z,100047.33
2019-03-01T05:22:16.139Z,100047.33
2019-03-01T05:22:47.321Z,100045.14
2019-03-01T05:23:19.605Z,100043.36
2019-03-01T05:23:51.305Z,100042.55
2019-03-01T05:24:22.595Z,100040.05
2019-03-01T05:24:53.757Z,100040.05
2019-03-01T05:25:24.975Z,100041.46
2019-03-01T05:25:56.117Z,100041.46
2019-03-01T05:26:27.343Z,100036.77
2019-03-01T05:26:58.501Z,100039.68
2019-03-01T05:27:29.692Z,100039.44
2019-03-01T05:28:00.836Z,100044.18
2019-03-01T05:28:32.045Z,100045.83
2019-03-01T05:29:03.212Z,100038.74
2019-03-01T05:29:34.621Z,100036.97
2019-03-01T05:30:09.979Z,100045.22
2019-03-01T05:30:41.222Z,100037.77
2019-03-01T05:31:12.402Z,100037.77
2019-03-01T05:31:43.636Z,100031.38
2019-03-01T05:32:14.863Z,100038.80
2019-03-01T05:32:46.108Z,100038.80
2019-03-01T05:33:17.330Z,100039.23
2019-03-01T05:33:48.548Z,100043.44
2019-03-01T05:34:19.784Z,100048.09
2019-03-01T05:34:51.028Z,100045.83
2019-03-01T05:35:22.356Z,100045.42
2019-03-01T05:35:53.572Z,100045.42
2019-03-01T05:36:24.766Z,100041.81
2019-03-01T05:36:55.927Z,100046.72
2019-03-01T05:37:27.116Z,100050.60
2019-03-01T05:37:58.267Z,100047.61
2019-03-01T05:38:29.478Z,100042.34
2019-03-01T05:39:01.638Z,100048.01
2019-03-01T05:39:35.163Z,100042.95
2019-03-01T05:40:10.247Z,100047.12
2019-03-01T05:40:41.444Z,100047.12
2019-03-01T05:41:12.655Z,100018.97
2019-03-01T05:41:43.911Z,100044.61
2019-03-01T05:42:15.115Z,100039.43
2019-03-01T05:42:46.360Z,100043.31
2019-03-01T05:43:17.603Z,100045.91
2019-03-01T05:43:48.841Z,100046.23
2019-03-01T05:44:20.069Z,100041.73
2019-03-01T05:44:51.303Z,100042.09
2019-03-01T05:45:26.029Z,100030.95
2019-03-01T05:45:57.281Z,100037.72
2019-03-01T05:46:28.505Z,100021.44
2019-03-01T05:46:59.659Z,100021.44
2019-03-01T05:47:30.862Z,100049.17
2019-03-01T05:48:02.021Z,100044.40
2019-03-01T05:48:34.620Z,100044.80
2019-03-01T05:49:05.773Z,100044.80
2019-03-01T05:49:36.972Z,100044.20
2019-03-01T05:50:11.806Z,100047.25
2019-03-01T05:50:43.022Z,100033.15
2019-03-01T05:51:14.192Z,100047.94
2019-03-01T05:51:45.407Z,100048.91
2019-03-01T05:52:16.564Z,100048.91
2019-03-01T05:52:47.762Z,100053.41
2019-03-01T05:53:18.961Z,100044.26
2019-03-01T05:53:50.141Z,100051.70
2019-03-01T05:54:21.320Z,100048.02
2019-03-01T05:54:53.518Z,100047.13
2019-03-01T05:55:24.718Z,100047.13
2019-03-01T05:55:55.950Z,100050.66
2019-03-01T05:56:27.188Z,100055.03
2019-03-01T05:56:58.343Z,100052.84
2019-03-01T05:57:29.530Z,100052.71
2019-03-01T05:58:30.870Z,100046.11
2019-03-01T05:59:16.623Z,100046.11
2019-03-01T05:59:48.823Z,100048.49
2019-03-01T06:00:20.004Z,100052.70
2019-03-01T06:00:53.585Z,100040.52
2019-03-01T06:01:30.175Z,100053.47
2019-03-01T06:02:21.909Z,100054.63
2019-03-01T06:02:58.773Z,100051.07
2019-03-01T06:03:38.386Z,100051.07
2019-03-01T06:04:15.163Z,100051.42
2019-03-01T06:04:54.143Z,100054.66
2019-03-01T06:05:25.458Z,100047.52
2019-03-01T06:05:56.656Z,100059.09
2019-03-01T06:07:00.368Z,100052.54
2019-03-01T06:07:54.432Z,100054.67
2019-03-01T06:08:57.688Z,100048.52
2019-03-01T06:09:58.316Z,100057.53
2019-03-01T06:10:40.992Z,100062.59
2019-03-01T06:11:17.868Z,100068.12
2019-03-01T06:12:11.151Z,100068.12
2019-03-01T06:13:10.501Z,100061.77
2019-03-01T06:14:04.560Z,100065.81
2019-03-01T06:14:55.587Z,100058.22
2019-03-01T06:15:46.707Z,100066.20
2019-03-01T06:16:26.569Z,100062.11
2019-03-01T06:17:24.245Z,100062.73
2019-03-01T06:18:18.914Z,100059.20
2019-03-01T06:19:31.137Z,100066.61
2019-03-01T06:20:22.893Z,100063.13
2019-03-01T06:21:23.566Z,100068.72
2019-03-01T06:22:06.248Z,100061.30
2019-03-01T06:22:51.426Z,100058.10
2019-03-01T06:24:03.160Z,100061.45
2019-03-01T06:25:06.042Z,100062.11
2019-03-01T06:25:57.229Z,100066.47
2019-03-01T06:26:51.766Z,100062.05
2019-03-01T06:28:04.548Z,100061.56
2019-03-01T06:28:49.715Z,100058.69
2019-03-01T06:29:29.318Z,100061.66
2019-03-01T06:30:14.551Z,100063.48
2019-03-01T06:31:03.334Z,100063.20
2019-03-01T06:31:51.581Z,100062.80
2019-03-01T06:32:29.451Z,100068.27
2019-03-01T06:33:50.267Z,100068.27
2019-03-01T06:34:38.675Z,100063.81
2019-03-01T06:35:21.143Z,100070.52
2019-03-01T06:36:19.470Z,100069.68
2019-03-01T06:37:08.262Z,100062.47
2019-03-01T06:38:04.690Z,100074.27
2019-03-01T06:38:50.460Z,100074.39
2019-03-01T06:39:48.481Z,100075.55
2019-03-01T06:40:50.487Z,100067.66
2019-03-01T06:41:36.390Z,100076.36
2019-03-01T06:42:19.261Z,100074.27